Crown Princess — ZCDM6 — position and weather

sailwx.info

Track history (hours):
 
Tides and Currents Weather Stations Pressure Air Temp Water Temp Dewpoint Dewpoint Depression Visibility Wind Speed Wind Dir Waves Ship Positions

Crown Princess

Last reported at 2015-Jan-31 10:28 UTC. Time now 2015-Feb-01 07:13 UTC.
Position N 32°18' W 117°54'.

Type: Ship. MMSI: 310500000.

Date/timePositionNaut miles runAvg speedWind from/ knotsBaromVisibWave heightAir tempDewpointWater temp
2015-Jan-31 10:28N 32°18' W 117°54'9 9.8
2015-Jan-31 09:33N 32°27' W 117°51'1010.0
2015-Jan-31 08:33N 32°36' W 117°47'1010.2
2015-Jan-31 07:33N 32°46' W 117°49'1010.2
2015-Jan-31 06:33N 32°56' W 117°52'10 9.6
2015-Jan-31 05:33N 33°05' W 117°55'9 9.6
2015-Jan-31 04:34N 33°13' W 118°02'10 9.8
2015-Jan-31 03:33N 33°22' W 118°07'10 9.8
2015-Jan-31 02:34N 33°31' W 118°11'10 9.7
2015-Jan-31 01:34N 33°40' W 118°15'8 0.6
2015-Jan-30 13:12N 33°34' W 118°09'810.3
2015-Jan-30 12:23N 33°26' W 118°06'910.3
2015-Jan-30 11:33N 33°18' W 118°02'1010.3
2015-Jan-30 10:33N 33°09' W 117°57'1010.2
2015-Jan-30 09:33N 32°60' W 117°52'1010.2
2015-Jan-30 08:33N 32°50' W 117°49'10 9.9
2015-Jan-30 07:33N 32°40' W 117°47'1010.0
2015-Jan-30 06:33N 32°30' W 117°49'1110.5
2015-Jan-30 05:33N 32°20' W 117°53'1010.5
2015-Jan-30 04:33N 32°10' W 117°57'1010.3
2015-Jan-30 03:33N 32°01' W 118°01'1010.1
2015-Jan-30 02:33N 31°51' W 118°06'10 9.8
2015-Jan-30 01:33N 31°42' W 118°09'10 9.8
2015-Jan-30 00:33N 31°33' W 118°13'10 9.8
2015-Jan-29 23:32N 31°23' W 118°13'1010.0
2015-Jan-29 22:33N 31°13' W 118°13'1110.0
2015-Jan-29 21:27N 31°02' W 118°14'9 9.9
2015-Jan-29 20:32N 30°53' W 118°14'5 9.3
2015-Jan-29 20:00N 30°48' W 118°12'83 5.0 320 / 151019.510.8 0.517.315.117.0
2015-Jan-29 03:16N 31°42' W 116°58'22 1.3
2015-Jan-28 11:09N 31°34' W 117°21'610.1
2015-Jan-28 10:34N 31°33' W 117°28'7 7.4
2015-Jan-28 09:33N 31°39' W 117°34'9 9.4
2015-Jan-28 08:33N 31°48' W 117°34'10 9.6
2015-Jan-28 07:34N 31°58' W 117°33'10 9.7
2015-Jan-28 06:34N 32°07' W 117°33'10 9.9
2015-Jan-28 05:33N 32°17' W 117°33'9 9.2
2015-Jan-28 04:33N 32°26' W 117°28'10 9.7
2015-Jan-28 03:33N 32°32' W 117°19'9 9.4
2015-Jan-28 02:34N 32°40' W 117°14'4 3.5
2015-Jan-28 01:29N 32°43' W 117°10'0 0.0
2015-Jan-28 00:31N 32°43' W 117°10'0 0.0
2015-Jan-27 23:31N 32°43' W 117°10'0 0.0
2015-Jan-27 22:30N 32°43' W 117°10'0 0.0
2015-Jan-27 21:27N 32°43' W 117°10'0 0.0
2015-Jan-27 20:33N 32°43' W 117°10'0 0.0
2015-Jan-27 19:32N 32°43' W 117°10'0 0.0
2015-Jan-27 18:32N 32°43' W 117°10'0 0.0
2015-Jan-27 17:31N 32°43' W 117°10'0 0.0
2015-Jan-27 16:31N 32°43' W 117°10'0 0.0
2015-Jan-27 15:33N 32°43' W 117°10'0 0.3
2015-Jan-27 14:33N 32°43' W 117°11'7 7.4
2015-Jan-27 13:33N 32°36' W 117°14'10 9.8
2015-Jan-27 12:33N 32°31' W 117°24'1110.5
2015-Jan-27 11:33N 32°28' W 117°36'8 8.4
2015-Jan-27 10:33N 32°21' W 117°42'9 9.2
2015-Jan-27 09:33N 32°22' W 117°53'10 9.8
2015-Jan-27 08:33N 32°31' W 117°50'1010.0
2015-Jan-27 07:33N 32°41' W 117°48'1010.3
2015-Jan-27 06:33N 32°51' W 117°48'1010.1
2015-Jan-27 05:33N 33°01' W 117°52'10 9.6
2015-Jan-27 04:33N 33°09' W 117°59'1010.2
2015-Jan-27 03:33N 33°17' W 118°05'2510.2
2015-Jan-27 01:06N 33°41' W 118°15'4 5.1
2015-Jan-27 00:16N 33°45' W 118°17'20 1.7
2015-Jan-26 12:33N 33°27' W 118°06'1110.8
2015-Jan-26 11:33N 33°17' W 118°01'1110.9
2015-Jan-26 10:33N 33°07' W 117°55'1110.8
2015-Jan-26 09:33N 32°57' W 117°51'916.7
2015-Jan-26 09:00N 32°48' W 117°48'2 3.9 030 / 121015.910.8 0.518.016.317.5
2015-Jan-26 08:33N 32°46' W 117°48'1111.3
2015-Jan-26 07:33N 32°35' W 117°45'1211.9
2015-Jan-26 06:33N 32°26' W 117°37'1212.3
2015-Jan-26 05:32N 32°16' W 117°28'42 2.6
2015-Jan-25 13:33N 31°43' W 116°57'9 9.2
2015-Jan-25 12:32N 31°36' W 117°05'1010.1
2015-Jan-25 11:33N 31°27' W 117°09'43 9.5
2015-Jan-25 07:00N 30°54' W 117°42'71 7.6 270 / 61016.810.8 16.914.818.0
2015-Jan-24 21:33N 32°04' W 117°56'1010.0
2015-Jan-24 20:33N 32°14' W 117°54'10 9.9
2015-Jan-24 19:33N 32°24' W 117°51'10 9.9
2015-Jan-24 18:33N 32°33' W 117°48'10 9.7
2015-Jan-24 17:33N 32°43' W 117°49'5 8.9
2015-Jan-24 17:00N 32°48' W 117°48'512.3 030 / 181018.327.0 0.520.010.917.0
2015-Jan-24 16:33N 32°53' W 117°51'1010.1
2015-Jan-24 15:33N 33°03' W 117°54'1010.0
2015-Jan-24 14:33N 33°11' W 118°00'9 9.4
2015-Jan-24 13:33N 33°19' W 118°06'9 9.4
2015-Jan-24 12:33N 33°28' W 118°10'9 8.9
2015-Jan-24 11:33N 33°35' W 118°17'1010.3
2015-Jan-24 10:33N 33°39' W 118°28'33 1.3
2015-Jan-23 09:23N 33°54' W 119°03'8 9.3
2015-Jan-23 08:33N 33°49' W 119°11'8 8.0
2015-Jan-23 07:33N 33°43' W 119°18'9 9.1
2015-Jan-23 06:32N 33°42' W 119°07'10 9.1
2015-Jan-23 05:26N 33°43' W 118°55'8 9.1
2015-Jan-23 04:33N 33°42' W 118°45'9 8.8
2015-Jan-23 03:32N 33°44' W 118°35'12 9.2
2015-Jan-23 02:14N 33°39' W 118°22'6 8.9
2015-Jan-23 01:33N 33°41' W 118°15'4 1.0
2015-Jan-22 21:25N 33°45' W 118°17'0 0.0
2015-Jan-22 20:31N 33°45' W 118°17'0 0.0
2015-Jan-22 19:34N 33°45' W 118°17'0 0.0
2015-Jan-22 18:30N 33°45' W 118°17'0 0.0
2015-Jan-22 17:30N 33°45' W 118°17'0 0.0
2015-Jan-22 16:14N 33°45' W 118°17'0 0.0
2015-Jan-22 15:32N 33°45' W 118°17'1 0.5
2015-Jan-22 14:33N 33°44' W 118°17'9 9.1
2015-Jan-22 13:33N 33°37' W 118°10'1111.4
2015-Jan-22 12:33N 33°26' W 118°06'1111.2
2015-Jan-22 11:33N 33°16' W 118°00'1111.4
2015-Jan-22 10:33N 33°05' W 117°55'1211.6
2015-Jan-22 09:33N 32°54' W 117°51'1111.2
2015-Jan-22 08:33N 32°43' W 117°48'1111.3
2015-Jan-22 07:33N 32°33' W 117°43'1212.2
2015-Jan-22 06:33N 32°23' W 117°34'1212.0
2015-Jan-22 05:33N 32°14' W 117°26'1511.5
2015-Jan-22 04:17N 32°04' W 117°13'  
Track history (hours):
 
Tides and Currents Weather Stations Pressure Air Temp Water Temp Dewpoint Dewpoint Depression Visibility Wind Speed Wind Dir Waves Ship Positions

Crown Princess

Last reported at 2015-Jan-31 10:28 UTC. Time now 2015-Feb-01 07:13 UTC.
Position N 32°18' W 117°54'.

Type: Ship. MMSI: 310500000.

Date/timePositionNaut miles runAvg speedWind from/ knotsBaromVisibWave heightAir tempDewpointWater temp
2015-Jan-31 10:28N 32°18' W 117°54'9 9.8
2015-Jan-31 09:33N 32°27' W 117°51'1010.0
2015-Jan-31 08:33N 32°36' W 117°47'1010.2
2015-Jan-31 07:33N 32°46' W 117°49'1010.2
2015-Jan-31 06:33N 32°56' W 117°52'10 9.6
2015-Jan-31 05:33N 33°05' W 117°55'9 9.6
2015-Jan-31 04:34N 33°13' W 118°02'10 9.8
2015-Jan-31 03:33N 33°22' W 118°07'10 9.8
2015-Jan-31 02:34N 33°31' W 118°11'10 9.7
2015-Jan-31 01:34N 33°40' W 118°15'8 0.6
2015-Jan-30 13:12N 33°34' W 118°09'810.3
2015-Jan-30 12:23N 33°26' W 118°06'910.3
2015-Jan-30 11:33N 33°18' W 118°02'1010.3
2015-Jan-30 10:33N 33°09' W 117°57'1010.2
2015-Jan-30 09:33N 32°60' W 117°52'1010.2
2015-Jan-30 08:33N 32°50' W 117°49'10 9.9
2015-Jan-30 07:33N 32°40' W 117°47'1010.0
2015-Jan-30 06:33N 32°30' W 117°49'1110.5
2015-Jan-30 05:33N 32°20' W 117°53'1010.5
2015-Jan-30 04:33N 32°10' W 117°57'1010.3
2015-Jan-30 03:33N 32°01' W 118°01'1010.1
2015-Jan-30 02:33N 31°51' W 118°06'10 9.8
2015-Jan-30 01:33N 31°42' W 118°09'10 9.8
2015-Jan-30 00:33N 31°33' W 118°13'10 9.8
2015-Jan-29 23:32N 31°23' W 118°13'1010.0
2015-Jan-29 22:33N 31°13' W 118°13'1110.0
2015-Jan-29 21:27N 31°02' W 118°14'9 9.9
2015-Jan-29 20:32N 30°53' W 118°14'5 9.3
2015-Jan-29 20:00N 30°48' W 118°12'83 5.0 320 / 151019.510.8 0.517.315.117.0
2015-Jan-29 03:16N 31°42' W 116°58'22 1.3
2015-Jan-28 11:09N 31°34' W 117°21'610.1
2015-Jan-28 10:34N 31°33' W 117°28'7 7.4
2015-Jan-28 09:33N 31°39' W 117°34'9 9.4
2015-Jan-28 08:33N 31°48' W 117°34'10 9.6
2015-Jan-28 07:34N 31°58' W 117°33'10 9.7
2015-Jan-28 06:34N 32°07' W 117°33'10 9.9
2015-Jan-28 05:33N 32°17' W 117°33'9 9.2
2015-Jan-28 04:33N 32°26' W 117°28'10 9.7
2015-Jan-28 03:33N 32°32' W 117°19'9 9.4
2015-Jan-28 02:34N 32°40' W 117°14'4 3.5
2015-Jan-28 01:29N 32°43' W 117°10'0 0.0
2015-Jan-28 00:31N 32°43' W 117°10'0 0.0
2015-Jan-27 23:31N 32°43' W 117°10'0 0.0
2015-Jan-27 22:30N 32°43' W 117°10'0 0.0
2015-Jan-27 21:27N 32°43' W 117°10'0 0.0
2015-Jan-27 20:33N 32°43' W 117°10'0 0.0
2015-Jan-27 19:32N 32°43' W 117°10'0 0.0
2015-Jan-27 18:32N 32°43' W 117°10'0 0.0
2015-Jan-27 17:31N 32°43' W 117°10'0 0.0
2015-Jan-27 16:31N 32°43' W 117°10'0 0.0
2015-Jan-27 15:33N 32°43' W 117°10'0 0.3
2015-Jan-27 14:33N 32°43' W 117°11'7 7.4
2015-Jan-27 13:33N 32°36' W 117°14'10 9.8
2015-Jan-27 12:33N 32°31' W 117°24'1110.5
2015-Jan-27 11:33N 32°28' W 117°36'8 8.4
2015-Jan-27 10:33N 32°21' W 117°42'9 9.2
2015-Jan-27 09:33N 32°22' W 117°53'10 9.8
2015-Jan-27 08:33N 32°31' W 117°50'1010.0
2015-Jan-27 07:33N 32°41' W 117°48'1010.3
2015-Jan-27 06:33N 32°51' W 117°48'1010.1
2015-Jan-27 05:33N 33°01' W 117°52'10 9.6
2015-Jan-27 04:33N 33°09' W 117°59'1010.2
2015-Jan-27 03:33N 33°17' W 118°05'2510.2
2015-Jan-27 01:06N 33°41' W 118°15'4 5.1
2015-Jan-27 00:16N 33°45' W 118°17'20 1.7
2015-Jan-26 12:33N 33°27' W 118°06'1110.8
2015-Jan-26 11:33N 33°17' W 118°01'1110.9
2015-Jan-26 10:33N 33°07' W 117°55'1110.8
2015-Jan-26 09:33N 32°57' W 117°51'916.7
2015-Jan-26 09:00N 32°48' W 117°48'2 3.9 030 / 121015.910.8 0.518.016.317.5
2015-Jan-26 08:33N 32°46' W 117°48'1111.3
2015-Jan-26 07:33N 32°35' W 117°45'1211.9
2015-Jan-26 06:33N 32°26' W 117°37'1212.3
2015-Jan-26 05:32N 32°16' W 117°28'42 2.6
2015-Jan-25 13:33N 31°43' W 116°57'9 9.2
2015-Jan-25 12:32N 31°36' W 117°05'1010.1
2015-Jan-25 11:33N 31°27' W 117°09'43 9.5
2015-Jan-25 07:00N 30°54' W 117°42'71 7.6 270 / 61016.810.8 16.914.818.0
2015-Jan-24 21:33N 32°04' W 117°56'1010.0
2015-Jan-24 20:33N 32°14' W 117°54'10 9.9
2015-Jan-24 19:33N 32°24' W 117°51'10 9.9
2015-Jan-24 18:33N 32°33' W 117°48'10 9.7
2015-Jan-24 17:33N 32°43' W 117°49'5 8.9
2015-Jan-24 17:00N 32°48' W 117°48'512.3 030 / 181018.327.0 0.520.010.917.0
2015-Jan-24 16:33N 32°53' W 117°51'1010.1
2015-Jan-24 15:33N 33°03' W 117°54'1010.0
2015-Jan-24 14:33N 33°11' W 118°00'9 9.4
2015-Jan-24 13:33N 33°19' W 118°06'9 9.4
2015-Jan-24 12:33N 33°28' W 118°10'9 8.9
2015-Jan-24 11:33N 33°35' W 118°17'1010.3
2015-Jan-24 10:33N 33°39' W 118°28'33 1.3
2015-Jan-23 09:23N 33°54' W 119°03'8 9.3
2015-Jan-23 08:33N 33°49' W 119°11'8 8.0
2015-Jan-23 07:33N 33°43' W 119°18'9 9.1
2015-Jan-23 06:32N 33°42' W 119°07'10 9.1
2015-Jan-23 05:26N 33°43' W 118°55'8 9.1
2015-Jan-23 04:33N 33°42' W 118°45'9 8.8
2015-Jan-23 03:32N 33°44' W 118°35'12 9.2
2015-Jan-23 02:14N 33°39' W 118°22'6 8.9
2015-Jan-23 01:33N 33°41' W 118°15'4 1.0
2015-Jan-22 21:25N 33°45' W 118°17'0 0.0
2015-Jan-22 20:31N 33°45' W 118°17'0 0.0
2015-Jan-22 19:34N 33°45' W 118°17'0 0.0
2015-Jan-22 18:30N 33°45' W 118°17'0 0.0
2015-Jan-22 17:30N 33°45' W 118°17'0 0.0
2015-Jan-22 16:14N 33°45' W 118°17'0 0.0
2015-Jan-22 15:32N 33°45' W 118°17'1 0.5
2015-Jan-22 14:33N 33°44' W 118°17'9 9.1
2015-Jan-22 13:33N 33°37' W 118°10'1111.4
2015-Jan-22 12:33N 33°26' W 118°06'1111.2
2015-Jan-22 11:33N 33°16' W 118°00'1111.4
2015-Jan-22 10:33N 33°05' W 117°55'1211.6
2015-Jan-22 09:33N 32°54' W 117°51'1111.2
2015-Jan-22 08:33N 32°43' W 117°48'1111.3
2015-Jan-22 07:33N 32°33' W 117°43'1212.2
2015-Jan-22 06:33N 32°23' W 117°34'1212.0
2015-Jan-22 05:33N 32°14' W 117°26'1511.5
2015-Jan-22 04:17N 32°04' W 117°13'  

Dump ship's entire track history